Time;durP1;ratioP1;P1;durP2;ratioP2;P2;SDS_P1;SDS_P2;PMS_P1;PMS_P2;Temp;Humidity;BMP_temperature;BMP_pressure;BME280_temperature;BME280_humidity;BME280_pressure;Samples;Min_cycle;Max_cycle;Signal;HPM_P1;HPM_P2
2022/07/31 00:02:07;;;;;;;;;;;;;;;26.44;61.87;100474.22;7405913;19;1902;-35
2022/07/31 00:04:39;;;;;;;;;;;;;;;26.45;61.95;100495.72;7404755;19;1553;-35
2022/07/31 00:07:07;;;;;;;;;;;;;;;26.42;61.86;100498.81;7404944;19;1634;-35
2022/07/31 00:09:45;;;;;;;;;;;;;;;26.43;62.09;100494.25;7405906;19;1091;-35
2022/07/31 00:12:21;;;;;;;;;;;;;;;26.41;62.00;100491.72;7402190;19;1957;-35
2022/07/31 00:14:54;;;;;;;;;;;;;;;26.44;61.97;100521.16;7405664;19;1911;-35
2022/07/31 00:17:27;;;;;;;;;;;;;;;26.46;61.95;100537.22;7404565;19;1805;-35
2022/07/31 00:19:58;;;;;;;;;;;;;;;26.44;62.05;100520.31;7404533;19;1830;-35
2022/07/31 00:22:35;;;;;;;;;;;;;;;26.43;61.81;100505.91;7404185;19;1851;-35
2022/07/31 00:25:07;;;;;;;;;;;;;;;26.44;62.01;100499.47;7405195;19;1037;-35
2022/07/31 00:27:37;;;;;;;;;;;;;;;26.41;62.20;100504.44;7403578;19;1962;-35
2022/07/31 00:30:12;;;;;;;;;;;;;;;26.43;61.95;100522.19;7404330;19;1916;-35
2022/07/31 00:32:46;;;;;;;;;;;;;;;26.43;61.98;100519.47;7404514;19;1522;-35
2022/07/31 00:35:17;;;;;;;;;;;;;;;26.43;62.07;100530.31;7404598;19;1550;-35
2022/07/31 00:37:46;;;;;;;;;;;;;;;26.41;62.07;100518.00;7404321;19;1561;-35
2022/07/31 00:40:18;;;;;;;;;;;;;;;26.42;61.98;100525.09;7404930;19;1036;-35
2022/07/31 00:42:51;;;;;;;;;;;;;;;26.41;62.10;100524.25;7401253;19;1855;-35
2022/07/31 00:45:26;;;;;;;;;;;;;;;26.41;61.94;100501.72;7402624;19;2065;-35
2022/07/31 00:48:02;;;;;;;;;;;;;;;26.42;61.94;100501.50;7402235;19;1406;-34
2022/07/31 00:50:38;;;;;;;;;;;;;;;26.40;62.16;100487.31;7402602;19;1835;-35
2022/07/31 00:53:11;;;;;;;;;;;;;;;26.42;62.02;100506.94;7403003;19;1921;-35
2022/07/31 00:55:43;;;;;;;;;;;;;;;26.42;61.96;100504.22;7405187;19;967;-35
2022/07/31 00:58:16;;;;;;;;;;;;;;;26.41;61.98;100499.84;7401639;19;1822;-35
2022/07/31 01:01:00;;;;;;;;;;;;;;;26.46;61.96;100513.69;7403234;19;2040;-35
2022/07/31 01:03:33;;;;;;;;;;;;;;;26.43;61.79;100513.22;7401188;19;1866;-35
2022/07/31 01:06:04;;;;;;;;;;;;;;;26.45;61.93;100525.53;7403143;19;1809;-35
2022/07/31 01:08:34;;;;;;;;;;;;;;;26.42;62.10;100504.22;7400171;19;2005;-35
2022/07/31 01:11:06;;;;;;;;;;;;;;;26.40;61.88;100509.00;7403181;19;1029;-35
2022/07/31 01:13:39;;;;;;;;;;;;;;;26.45;61.96;100503.84;7403260;19;1554;-35
2022/07/31 01:16:11;;;;;;;;;;;;;;;26.38;62.12;100490.22;7402933;19;1630;-35
2022/07/31 01:18:44;;;;;;;;;;;;;;;26.37;62.14;100487.72;7402305;19;1766;-35
2022/07/31 01:21:15;;;;;;;;;;;;;;;26.39;61.99;100488.34;7405174;19;1840;-35
2022/07/31 01:23:47;;;;;;;;;;;;;;;26.40;61.98;100484.59;7401326;19;1855;-35
2022/07/31 01:26:23;;;;;;;;;;;;;;;26.40;62.05;100481.88;7402776;19;1048;-34
2022/07/31 01:29:05;;;;;;;;;;;;;;;26.37;62.24;100472.28;7402749;19;1984;-35
2022/07/31 01:31:38;;;;;;;;;;;;;;;26.35;62.17;100471.63;7400740;19;1910;-34
2022/07/31 01:34:10;;;;;;;;;;;;;;;26.36;62.17;100481.44;7403106;19;1722;-35
2022/07/31 01:36:51;;;;;;;;;;;;;;;26.36;62.36;100481.44;7402512;19;1695;-35
2022/07/31 01:39:29;;;;;;;;;;;;;;;26.37;61.90;100471.44;7401905;19;1871;-35
2022/07/31 01:42:19;;;;;;;;;;;;;;;26.40;62.10;100487.31;7399957;19;1672;-35
2022/07/31 01:44:53;;;;;;;;;;;;;;;26.39;61.97;100480.22;7404320;19;1630;-34
2022/07/31 01:47:41;;;;;;;;;;;;;;;26.34;62.30;100458.25;7402320;19;1541;-35
2022/07/31 01:50:14;;;;;;;;;;;;;;;26.37;62.14;100466.03;7401837;19;1869;-34
2022/07/31 01:52:50;;;;;;;;;;;;;;;26.37;62.00;100466.03;7401794;19;1856;-35
2022/07/31 01:55:22;;;;;;;;;;;;;;;26.37;61.99;100464.13;7403263;19;1017;-35
2022/07/31 01:57:55;;;;;;;;;;;;;;;26.35;62.13;100463.50;7399695;19;1709;-35
2022/07/31 02:00:26;;;;;;;;;;;;;;;26.35;62.33;100462.66;7400537;19;3356;-60
2022/07/31 02:02:57;;;;;;;;;;;;;;;26.34;62.30;100463.69;7398070;19;1879;-59
2022/07/31 02:05:26;;;;;;;;;;;;;;;26.37;62.06;100466.03;7404605;19;1552;-56
2022/07/31 02:07:56;;;;;;;;;;;;;;;26.33;62.38;100454.72;7404942;19;1436;-61
2022/07/31 02:10:25;;;;;;;;;;;;;;;26.35;62.26;100440.97;7404919;19;1379;-61
2022/07/31 02:12:54;;;;;;;;;;;;;;;26.33;62.15;100446.59;7403024;19;1483;-57
2022/07/31 02:15:23;;;;;;;;;;;;;;;26.34;62.38;100440.16;7410829;19;1419;-60
2022/07/31 02:17:54;;;;;;;;;;;;;;;26.36;62.20;100431.78;7409474;19;1419;-55
2022/07/31 02:20:23;;;;;;;;;;;;;;;26.35;62.08;100446.41;7412029;19;1537;-61
2022/07/31 02:22:51;;;;;;;;;;;;;;;26.38;62.09;100443.28;7410951;19;1857;-59
2022/07/31 02:25:20;;;;;;;;;;;;;;;26.39;61.93;100431.41;7410122;19;1738;-61
2022/07/31 02:27:49;;;;;;;;;;;;;;;26.42;62.09;100436.44;7412040;19;1352;-55
2022/07/31 02:30:18;;;;;;;;;;;;;;;26.43;62.01;100448.16;7410491;19;1658;-60
2022/07/31 02:32:47;;;;;;;;;;;;;;;26.37;61.95;100428.06;7410355;19;1303;-61
2022/07/31 02:35:19;;;;;;;;;;;;;;;26.37;62.39;100428.91;7410591;19;1362;-55
2022/07/31 02:37:50;;;;;;;;;;;;;;;26.33;62.25;100399.66;7410686;19;1327;-60
2022/07/31 02:40:19;;;;;;;;;;;;;;;26.35;62.13;100428.25;7411019;19;1432;-61
2022/07/31 02:42:48;;;;;;;;;;;;;;;26.36;62.17;100420.94;7410485;19;1866;-61
2022/07/31 02:45:17;;;;;;;;;;;;;;;26.33;62.31;100410.50;7409961;19;1611;-61
2022/07/31 02:47:47;;;;;;;;;;;;;;;26.33;62.23;100422.19;7411218;19;1312;-56
2022/07/31 02:50:15;;;;;;;;;;;;;;;26.37;62.27;100433.50;7411012;19;1274;-60
2022/07/31 02:52:46;;;;;;;;;;;;;;;26.38;62.13;100436.00;7409518;19;1406;-56
2022/07/31 02:55:15;;;;;;;;;;;;;;;26.33;62.11;100432.19;7412034;19;1055;-56
2022/07/31 02:57:43;;;;;;;;;;;;;;;26.33;62.23;100437.63;7409072;19;1448;-61
2022/07/31 03:00:21;;;;;;;;;;;;;;;26.33;62.48;100440.31;7410025;19;1213;-55
2022/07/31 03:02:50;;;;;;;;;;;;;;;26.31;62.30;100428.84;7409802;19;1858;-55
2022/07/31 03:05:19;;;;;;;;;;;;;;;26.31;62.13;100435.09;7410038;19;1252;-56
2022/07/31 03:07:50;;;;;;;;;;;;;;;26.31;62.33;100429.66;7410309;19;1272;-61
2022/07/31 03:10:18;;;;;;;;;;;;;;;26.33;62.39;100434.91;7411608;19;1009;-56
2022/07/31 03:12:49;;;;;;;;;;;;;;;26.31;62.19;100421.53;7407680;19;1531;-55
2022/07/31 03:15:19;;;;;;;;;;;;;;;26.30;62.11;100427.13;7408726;19;1386;-56
2022/07/31 03:17:48;;;;;;;;;;;;;;;26.30;62.19;100410.88;7407813;19;1444;-60
2022/07/31 03:20:17;;;;;;;;;;;;;;;26.31;62.39;100448.66;7408868;19;1331;-61
2022/07/31 03:22:46;;;;;;;;;;;;;;;26.32;62.18;100430.50;7409659;19;1857;-61
2022/07/31 03:25:17;;;;;;;;;;;;;;;26.29;62.33;100442.56;7409613;19;1166;-55
2022/07/31 03:27:45;;;;;;;;;;;;;;;26.28;62.50;100442.75;7409530;19;1479;-56
2022/07/31 03:30:17;;;;;;;;;;;;;;;26.27;62.46;100438.38;7407566;19;1463;-55
2022/07/31 03:32:45;;;;;;;;;;;;;;;26.29;62.53;100447.16;7407543;19;1552;-61
2022/07/31 03:35:14;;;;;;;;;;;;;;;26.27;62.20;100444.63;7408763;19;1427;-61
2022/07/31 03:37:42;;;;;;;;;;;;;;;26.25;62.44;100438.56;7409744;19;1564;-56
2022/07/31 03:40:11;;;;;;;;;;;;;;;26.25;62.32;100446.69;7409846;19;1598;-61
2022/07/31 03:42:43;;;;;;;;;;;;;;;26.32;62.49;100458.47;7409821;19;1285;-56
2022/07/31 03:45:12;;;;;;;;;;;;;;;26.31;62.29;100464.06;7406826;19;1841;-61
2022/07/31 03:47:41;;;;;;;;;;;;;;;26.35;62.14;100465.38;7409524;19;1768;-56
2022/07/31 03:50:10;;;;;;;;;;;;;;;26.31;62.33;100453.22;7409469;19;1222;-61
2022/07/31 03:52:39;;;;;;;;;;;;;;;26.31;62.19;100469.50;7409951;19;1313;-60
2022/07/31 03:55:08;;;;;;;;;;;;;;;26.33;62.37;100453.88;7409615;19;1640;-56
2022/07/31 03:57:39;;;;;;;;;;;;;;;26.34;62.11;100460.97;7405763;19;1512;-61
2022/07/31 04:00:11;;;;;;;;;;;;;;;26.28;62.42;100461.75;7407718;19;1544;-62
2022/07/31 04:02:39;;;;;;;;;;;;;;;26.26;62.41;100474.63;7406537;19;1310;-61
2022/07/31 04:05:08;;;;;;;;;;;;;;;26.37;62.51;100468.72;7406542;19;1862;-61
2022/07/31 04:07:37;;;;;;;;;;;;;;;26.14;62.84;100480.56;7409268;19;1576;-56
2022/07/31 04:10:05;;;;;;;;;;;;;;;26.21;62.74;100482.53;7410697;19;985;-56
2022/07/31 04:12:33;;;;;;;;;;;;;;;26.15;62.72;100484.94;7406478;19;1596;-56
2022/07/31 04:15:02;;;;;;;;;;;;;;;26.19;62.54;100483.53;7408926;19;1639;-56
2022/07/31 04:17:33;;;;;;;;;;;;;;;26.14;62.69;100486.00;7408636;19;1544;-61
2022/07/31 04:20:01;;;;;;;;;;;;;;;26.07;62.64;100478.81;7408460;19;1606;-56
2022/07/31 04:22:30;;;;;;;;;;;;;;;26.06;62.76;100475.22;7408534;19;1619;-56
2022/07/31 04:24:58;;;;;;;;;;;;;;;25.98;62.98;100489.75;7407418;19;1873;-56
2022/07/31 04:27:27;;;;;;;;;;;;;;;25.94;62.69;100474.03;7405892;19;1491;-60
2022/07/31 04:29:58;;;;;;;;;;;;;;;25.83;63.09;100479.94;7408743;19;1485;-56
2022/07/31 04:32:26;;;;;;;;;;;;;;;25.99;62.90;100490.59;7407738;19;1279;-57
2022/07/31 04:34:57;;;;;;;;;;;;;;;26.02;63.05;100476.66;7407305;19;1352;-60
2022/07/31 04:37:25;;;;;;;;;;;;;;;25.96;63.11;100470.13;7405404;19;1299;-61
2022/07/31 04:39:54;;;;;;;;;;;;;;;26.01;62.54;100488.53;7408849;19;1016;-60
2022/07/31 04:42:22;;;;;;;;;;;;;;;25.95;62.79;100502.84;7405399;19;1623;-57
2022/07/31 04:44:51;;;;;;;;;;;;;;;25.82;63.14;100495.31;7405701;19;1858;-56
2022/07/31 04:47:19;;;;;;;;;;;;;;;25.81;63.40;100507.19;7406545;19;1374;-61
2022/07/31 04:49:47;;;;;;;;;;;;;;;25.88;62.85;100493.72;7407268;19;1436;-61
2022/07/31 04:52:18;;;;;;;;;;;;;;;25.85;62.91;100508.50;7407486;19;1615;-61
2022/07/31 04:54:47;;;;;;;;;;;;;;;25.85;63.24;100510.38;7408841;19;1013;-60
2022/07/31 04:57:15;;;;;;;;;;;;;;;25.86;63.05;100518.28;7405373;19;1456;-60
2022/07/31 04:59:44;;;;;;;;;;;;;;;25.78;63.43;100500.28;7406253;19;1097;-60
2022/07/31 05:02:12;;;;;;;;;;;;;;;25.90;63.37;100510.63;7405044;19;1294;-61
2022/07/31 05:04:40;;;;;;;;;;;;;;;25.90;63.23;100522.34;7405794;19;1865;-60
2022/07/31 05:07:09;;;;;;;;;;;;;;;25.92;63.05;100516.75;7407593;19;1770;-60
2022/07/31 05:09:40;;;;;;;;;;;;;;;25.79;63.33;100511.97;7408047;19;1592;-61
2022/07/31 05:12:08;;;;;;;;;;;;;;;25.66;63.87;100518.00;7404254;19;1344;-56
2022/07/31 05:14:36;;;;;;;;;;;;;;;25.59;64.15;100522.50;7406126;19;1620;-56
2022/07/31 05:17:06;;;;;;;;;;;;;;;25.63;64.08;100507.56;7406291;19;1420;-57
2022/07/31 05:19:34;;;;;;;;;;;;;;;25.61;63.89;100506.91;7407933;19;1102;-60
2022/07/31 05:22:03;;;;;;;;;;;;;;;25.71;63.79;100518.31;7407498;19;1189;-59
2022/07/31 05:24:32;;;;;;;;;;;;;;;25.63;64.28;100520.28;7405490;19;1854;-61
2022/07/31 05:27:03;;;;;;;;;;;;;;;25.57;64.12;100511.03;7402909;19;1691;-61
2022/07/31 05:29:32;;;;;;;;;;;;;;;25.67;64.26;100518.88;7406545;19;1513;-56
2022/07/31 05:32:00;;;;;;;;;;;;;;;25.47;64.74;100518.56;7405762;19;1311;-62
2022/07/31 05:34:29;;;;;;;;;;;;;;;25.55;64.14;100526.59;7407191;19;1340;-56
2022/07/31 05:36:57;;;;;;;;;;;;;;;25.56;64.43;100523.69;7406285;19;1607;-56
2022/07/31 05:39:27;;;;;;;;;;;;;;;25.38;64.90;100521.34;7405567;19;1643;-60
2022/07/31 05:41:55;;;;;;;;;;;;;;;25.31;65.10;100519.56;7403226;19;1271;-62
2022/07/31 05:44:26;;;;;;;;;;;;;;;25.42;65.04;100531.81;7403993;19;1854;-56
2022/07/31 05:46:54;;;;;;;;;;;;;;;25.33;65.01;100534.59;7406315;19;1547;-60
2022/07/31 05:49:25;;;;;;;;;;;;;;;25.30;65.35;100540.34;7405223;19;1845;-60
2022/07/31 05:51:53;;;;;;;;;;;;;;;25.40;65.08;100540.94;7405836;19;1801;-60
2022/07/31 05:54:22;;;;;;;;;;;;;;;25.17;65.39;100526.59;7405007;19;1643;-60
2022/07/31 05:56:50;;;;;;;;;;;;;;;25.27;65.18;100535.31;7405328;19;1571;-61
2022/07/31 05:59:19;;;;;;;;;;;;;;;25.46;64.57;100525.00;7406058;19;1584;-57
2022/07/31 06:01:50;;;;;;;;;;;;;;;25.51;64.45;100523.41;7404641;19;1631;-56
2022/07/31 06:04:18;;;;;;;;;;;;;;;25.33;64.89;100534.59;7405622;19;1853;-60
2022/07/31 06:06:46;;;;;;;;;;;;;;;25.40;64.99;100540.94;7405274;19;1758;-56
2022/07/31 06:09:17;;;;;;;;;;;;;;;25.20;65.62;100534.31;7402950;19;1292;-60
2022/07/31 06:11:46;;;;;;;;;;;;;;;25.12;65.95;100547.94;7405170;19;1513;-56
2022/07/31 06:14:14;;;;;;;;;;;;;;;25.26;65.27;100521.97;7405794;19;1541;-60
2022/07/31 06:16:44;;;;;;;;;;;;;;;25.50;64.60;100532.56;7406080;19;1013;-59
2022/07/31 06:19:15;;;;;;;;;;;;;;;25.32;65.49;100532.06;7405234;19;1667;-55
2022/07/31 06:21:43;;;;;;;;;;;;;;;25.21;66.09;100530.63;7404304;19;1706;-56
2022/07/31 06:24:11;;;;;;;;;;;;;;;25.20;66.09;100528.91;7403711;19;1849;-56
2022/07/31 06:26:40;;;;;;;;;;;;;;;25.27;65.67;100538.03;7403979;19;1531;-61
2022/07/31 06:29:08;;;;;;;;;;;;;;;25.23;65.79;100528.59;7404680;19;1401;-55
2022/07/31 06:31:37;;;;;;;;;;;;;;;25.23;65.83;100527.72;7404808;19;1764;-60
2022/07/31 06:34:05;;;;;;;;;;;;;;;25.28;65.43;100520.75;7404197;19;1593;-56
2022/07/31 06:36:36;;;;;;;;;;;;;;;25.15;65.97;100518.66;7404762;19;1702;-60
2022/07/31 06:39:04;;;;;;;;;;;;;;;25.24;65.43;100519.44;7403718;19;1762;-60
2022/07/31 06:44:20;;;;;;;;;;;;;;;25.25;65.45;100529.25;7400380;19;2639;-60
2022/07/31 06:46:50;;;;;;;;;;;;;;;25.10;65.43;100526.47;7404313;19;1532;-56
2022/07/31 06:49:19;;;;;;;;;;;;;;;25.20;64.92;100518.09;7405267;19;1005;-59
2022/07/31 06:51:50;;;;;;;;;;;;;;;25.32;65.19;100540.19;7403831;19;1738;-60
2022/07/31 06:54:19;;;;;;;;;;;;;;;25.34;64.83;100530.00;7403681;19;1588;-56
2022/07/31 06:56:48;;;;;;;;;;;;;;;25.40;64.40;100519.28;7400460;19;1647;-56
2022/07/31 06:59:16;;;;;;;;;;;;;;;25.48;64.34;100512.94;7403881;19;1450;-55
2022/07/31 07:01:44;;;;;;;;;;;;;;;25.54;63.68;100514.91;7409147;19;1556;-57
2022/07/31 07:04:13;;;;;;;;;;;;;;;25.60;63.86;100507.91;7411680;19;1853;-56
2022/07/31 07:06:41;;;;;;;;;;;;;;;25.62;63.44;100515.88;7410014;19;1348;-55
2022/07/31 07:09:12;;;;;;;;;;;;;;;25.57;63.04;100516.44;7410319;19;1497;-60
2022/07/31 07:11:41;;;;;;;;;;;;;;;25.60;62.51;100497.09;7411261;19;1524;-60
2022/07/31 07:14:10;;;;;;;;;;;;;;;25.65;61.82;100518.22;7411464;19;1635;-61
2022/07/31 07:16:38;;;;;;;;;;;;;;;25.60;62.08;100518.75;7410216;19;1754;-61
2022/07/31 07:19:07;;;;;;;;;;;;;;;25.71;61.85;100521.00;7409963;19;1296;-61
2022/07/31 07:21:35;;;;;;;;;;;;;;;25.70;61.59;100513.06;7410288;19;1655;-61
2022/07/31 07:24:03;;;;;;;;;;;;;;;25.52;61.78;100498.00;7410613;19;1193;-60
2022/07/31 07:26:34;;;;;;;;;;;;;;;25.63;62.03;100502.16;7410169;19;1200;-56
2022/07/31 07:29:03;;;;;;;;;;;;;;;25.49;62.51;100508.41;7411068;19;1044;-60
2022/07/31 07:31:31;;;;;;;;;;;;;;;25.55;62.42;100522.03;7410030;19;1765;-60
2022/07/31 07:34:00;;;;;;;;;;;;;;;25.54;62.72;100516.78;7409862;19;1655;-60
2022/07/31 07:36:28;;;;;;;;;;;;;;;25.68;62.36;100520.53;7409523;19;1604;-60
2022/07/31 07:38:57;;;;;;;;;;;;;;;25.50;62.58;100526.31;7409207;19;1320;-56
2022/07/31 07:41:25;;;;;;;;;;;;;;;25.35;62.92;100524.41;7410791;19;1020;-56
2022/07/31 07:43:56;;;;;;;;;;;;;;;25.52;62.73;100521.53;7409648;19;1497;-60
2022/07/31 07:46:25;;;;;;;;;;;;;;;25.58;62.30;100518.94;7406725;19;1856;-56
2022/07/31 07:48:54;;;;;;;;;;;;;;;25.72;62.25;100514.56;7408920;19;1344;-56
2022/07/31 07:51:22;;;;;;;;;;;;;;;25.88;61.98;100520.81;7408805;19;1299;-56
2022/07/31 07:53:50;;;;;;;;;;;;;;;25.91;61.87;100526.75;7408533;19;1603;-56
2022/07/31 07:56:19;;;;;;;;;;;;;;;25.80;61.85;100530.75;7410062;19;1106;-61
2022/07/31 07:58:47;;;;;;;;;;;;;;;25.98;61.60;100510.56;7406227;19;1773;-56
2022/07/31 08:01:19;;;;;;;;;;;;;;;26.05;61.40;100507.97;7407337;19;1424;-56
2022/07/31 08:03:47;;;;;;;;;;;;;;;26.16;61.21;100515.59;7408824;19;1359;-61
2022/07/31 08:06:16;;;;;;;;;;;;;;;26.06;61.55;100506.91;7406782;19;1853;-61
2022/07/31 08:08:44;;;;;;;;;;;;;;;26.13;61.65;100514.09;7408697;19;1497;-59
2022/07/31 08:11:13;;;;;;;;;;;;;;;26.04;61.59;100523.34;7407783;19;1439;-56
2022/07/31 08:13:41;;;;;;;;;;;;;;;26.01;61.10;100521.03;7408130;19;1757;-56
2022/07/31 08:16:10;;;;;;;;;;;;;;;26.08;60.75;100499.44;7407535;19;1632;-56
2022/07/31 08:18:40;;;;;;;;;;;;;;;26.10;60.77;100509.09;7408177;19;1366;-56
2022/07/31 08:21:09;;;;;;;;;;;;;;;26.12;60.86;100512.44;7407777;19;1892;-56
2022/07/31 08:23:37;;;;;;;;;;;;;;;26.18;60.19;100500.84;7407299;19;1631;-61
2022/07/31 08:26:07;;;;;;;;;;;;;;;26.16;60.13;100502.91;7407427;19;1829;-56
2022/07/31 08:28:35;;;;;;;;;;;;;;;26.06;60.00;100499.63;7406833;19;1765;-61
2022/07/31 08:31:04;;;;;;;;;;;;;;;26.07;59.96;100503.19;7407803;19;1453;-56
2022/07/31 08:33:32;;;;;;;;;;;;;;;26.12;60.13;100509.72;7407143;19;1287;-56
2022/07/31 08:36:03;;;;;;;;;;;;;;;26.18;60.08;100500.84;7407188;19;1643;-60
2022/07/31 08:38:32;;;;;;;;;;;;;;;26.14;59.87;100488.69;7406817;19;1541;-60
2022/07/31 08:41:00;;;;;;;;;;;;;;;26.23;59.89;100499.44;7409553;19;979;-60
2022/07/31 08:43:28;;;;;;;;;;;;;;;26.25;60.07;100500.91;7407501;19;1675;-60
2022/07/31 08:45:57;;;;;;;;;;;;;;;26.22;59.40;100493.16;7405353;19;1845;-56
2022/07/31 08:48:28;;;;;;;;;;;;;;;26.23;59.63;100508.41;7405814;19;1363;-56
2022/07/31 08:50:57;;;;;;;;;;;;;;;26.28;59.39;100494.25;7406350;19;1517;-60
2022/07/31 08:53:29;;;;;;;;;;;;;;;26.31;59.76;100491.19;7406028;19;1591;-61
2022/07/31 08:55:57;;;;;;;;;;;;;;;26.35;59.32;100495.19;7406431;19;1738;-60
2022/07/31 08:58:26;;;;;;;;;;;;;;;26.32;59.37;100484.72;7405001;19;1401;-60
2022/07/31 09:00:54;;;;;;;;;;;;;;;26.34;59.54;100490.78;7405769;19;1454;-62
2022/07/31 09:03:23;;;;;;;;;;;;;;;26.33;59.38;100487.25;7407024;19;1439;-60
2022/07/31 09:05:51;;;;;;;;;;;;;;;26.37;59.20;100487.72;7404559;19;1858;-60
2022/07/31 09:08:19;;;;;;;;;;;;;;;26.37;59.31;100469.56;7406573;19;1208;-61
2022/07/31 09:10:50;;;;;;;;;;;;;;;26.39;59.32;100478.34;7408152;19;968;-61
2022/07/31 09:13:19;;;;;;;;;;;;;;;26.42;58.99;100474.41;7405554;19;1447;-56
2022/07/31 09:15:49;;;;;;;;;;;;;;;26.42;59.12;100481.69;7406343;19;1563;-55
2022/07/31 09:18:20;;;;;;;;;;;;;;;26.39;58.30;100469.38;7405907;19;1619;-57
2022/07/31 09:20:58;;;;;;;;;;;;;;;26.44;58.71;100485.91;7405042;19;1572;-56
2022/07/31 09:23:27;;;;;;;;;;;;;;;26.41;58.42;100471.91;7403072;19;1532;-60
2022/07/31 09:25:58;;;;;;;;;;;;;;;26.39;58.14;100455.81;7406591;19;1858;-61
2022/07/31 09:28:35;;;;;;;;;;;;;;;26.48;58.58;100479.09;7405409;19;1714;-56
2022/07/31 09:31:03;;;;;;;;;;;;;;;26.48;58.42;100457.38;7406757;19;1510;-61
2022/07/31 09:33:32;;;;;;;;;;;;;;;26.49;59.03;100459.06;7405950;19;1536;-57
2022/07/31 09:36:01;;;;;;;;;;;;;;;26.50;59.12;100449.91;7405225;19;1336;-60
2022/07/31 09:38:34;;;;;;;;;;;;;;;26.48;59.24;100457.38;7405072;19;1540;-56
2022/07/31 09:41:15;;;;;;;;;;;;;;;26.50;59.00;100462.59;7405910;19;953;-61
2022/07/31 09:43:44;;;;;;;;;;;;;;;26.49;59.06;100464.47;7405208;19;1679;-61
2022/07/31 09:46:12;;;;;;;;;;;;;;;26.46;58.94;100439.63;7404676;19;1865;-61
2022/07/31 09:48:51;;;;;;;;;;;;;;;26.38;59.20;100451.41;7405463;19;1544;-56
2022/07/31 09:51:19;;;;;;;;;;;;;;;26.47;59.12;100450.28;7405370;19;1504;-56
2022/07/31 09:53:49;;;;;;;;;;;;;;;26.48;59.08;100462.81;7404706;19;1512;-61
2022/07/31 09:56:20;;;;;;;;;;;;;;;26.50;58.97;100458.03;7406136;19;1028;-63
2022/07/31 09:58:48;;;;;;;;;;;;;;;26.53;59.08;100444.06;7403489;19;1460;-56
2022/07/31 10:01:17;;;;;;;;;;;;;;;26.57;59.35;100439.09;7403990;19;1791;-56
2022/07/31 10:03:49;;;;;;;;;;;;;;;26.61;59.26;100450.44;7403858;19;1291;-61
2022/07/31 10:06:17;;;;;;;;;;;;;;;26.59;59.11;100456.06;7403446;19;1855;-61
2022/07/31 10:08:46;;;;;;;;;;;;;;;26.59;59.42;100440.63;7402918;19;1537;-56
2022/07/31 10:11:15;;;;;;;;;;;;;;;26.58;59.29;100436.25;7405931;19;937;-56
2022/07/31 10:13:47;;;;;;;;;;;;;;;26.55;58.80;100423.03;7404235;19;1430;-56
2022/07/31 10:16:16;;;;;;;;;;;;;;;26.56;58.99;100427.44;7403928;19;1777;-61
2022/07/31 10:18:47;;;;;;;;;;;;;;;26.55;59.13;100431.16;7405589;19;1643;-60
2022/07/31 10:21:17;;;;;;;;;;;;;;;26.55;58.98;100428.44;7404314;19;1236;-60
2022/07/31 10:23:46;;;;;;;;;;;;;;;26.59;58.81;100435.19;7404036;19;1352;-62
2022/07/31 10:26:15;;;;;;;;;;;;;;;26.57;58.97;100437.22;7403872;19;1873;-61
2022/07/31 10:28:46;;;;;;;;;;;;;;;26.57;58.72;100426.38;7404288;19;1765;-60
2022/07/31 10:31:14;;;;;;;;;;;;;;;26.61;58.54;100434.19;7403919;19;1431;-60
2022/07/31 10:33:44;;;;;;;;;;;;;;;26.59;58.18;100420.81;7404260;19;1544;-61
2022/07/31 10:36:16;;;;;;;;;;;;;;;26.61;58.37;100417.91;7411351;19;1630;-56
2022/07/31 10:38:47;;;;;;;;;;;;;;;26.62;58.46;100412.28;7411011;19;1654;-55
2022/07/31 10:41:19;;;;;;;;;;;;;;;26.63;58.19;100405.81;7412738;19;942;-56
2022/07/31 10:43:53;;;;;;;;;;;;;;;26.62;58.44;100406.88;7410937;19;1566;-59
2022/07/31 10:46:28;;;;;;;;;;;;;;;26.65;58.40;100413.75;7409726;19;1856;-61
2022/07/31 10:48:57;;;;;;;;;;;;;;;26.62;58.45;100398.72;7411034;19;1770;-60
2022/07/31 10:51:25;;;;;;;;;;;;;;;26.62;58.56;100392.44;7411279;19;1635;-60
2022/07/31 10:53:57;;;;;;;;;;;;;;;26.62;57.99;100390.59;7410820;19;1540;-57
2022/07/31 10:56:26;;;;;;;;;;;;;;;26.65;57.86;100392.06;7412218;19;1019;-56
2022/07/31 10:58:58;;;;;;;;;;;;;;;26.69;58.02;100379.78;7409022;19;1555;-56
2022/07/31 11:01:27;;;;;;;;;;;;;;;26.65;58.14;100383.94;7409167;19;1539;-61
2022/07/31 11:03:56;;;;;;;;;;;;;;;26.67;58.01;100368.31;7411480;19;1614;-56
2022/07/31 11:06:25;;;;;;;;;;;;;;;26.65;57.91;100360.34;7409651;19;1853;-56
2022/07/31 11:08:56;;;;;;;;;;;;;;;26.66;57.70;100361.19;7410222;19;1583;-61
2022/07/31 11:11:33;;;;;;;;;;;;;;;26.68;57.67;100361.81;7411281;19;957;-57
2022/07/31 11:14:04;;;;;;;;;;;;;;;26.69;58.06;100358.09;7411491;19;1079;-56
2022/07/31 11:16:32;;;;;;;;;;;;;;;26.68;58.38;100359.97;7410757;19;1683;-56
2022/07/31 11:19:02;;;;;;;;;;;;;;;26.64;58.25;100352.41;7409805;19;1730;-56
2022/07/31 11:21:34;;;;;;;;;;;;;;;26.66;58.54;100353.03;7408988;19;1727;-61
2022/07/31 11:24:03;;;;;;;;;;;;;;;26.69;58.52;100349.94;7410365;19;1571;-61
2022/07/31 11:26:32;;;;;;;;;;;;;;;26.69;58.44;100349.94;7409521;19;1861;-56
2022/07/31 11:29:00;;;;;;;;;;;;;;;26.66;58.57;100344.91;7410965;19;1753;-61
2022/07/31 11:31:32;;;;;;;;;;;;;;;26.68;58.62;100345.56;7409866;19;1446;-56
2022/07/31 11:34:04;;;;;;;;;;;;;;;26.65;58.55;100329.69;7408849;19;1471;-56
2022/07/31 11:36:33;;;;;;;;;;;;;;;26.67;58.33;100335.75;7409510;19;1390;-56
2022/07/31 11:39:01;;;;;;;;;;;;;;;26.67;58.06;100336.59;7408484;19;1212;-56
2022/07/31 11:41:31;;;;;;;;;;;;;;;26.67;57.90;100335.75;7410304;19;1635;-60
2022/07/31 11:44:02;;;;;;;;;;;;;;;26.65;57.83;100332.41;7410068;19;1640;-59
2022/07/31 11:46:36;;;;;;;;;;;;;;;26.65;57.54;100326.97;7407097;19;1822;-60
2022/07/31 11:49:05;;;;;;;;;;;;;;;26.59;57.50;100340.28;7409226;19;1343;-56
2022/07/31 11:51:34;;;;;;;;;;;;;;;26.60;58.92;100346.56;7408851;19;1666;-56
2022/07/31 11:54:02;;;;;;;;;;;;;;;26.36;62.58;100364.88;7409472;19;1295;-60
2022/07/31 11:56:31;;;;;;;;;;;;;;;26.17;63.39;100352.78;7410393;19;1543;-60
2022/07/31 11:58:59;;;;;;;;;;;;;;;26.17;64.49;100350.09;7407901;19;1714;-56
2022/07/31 12:01:30;;;;;;;;;;;;;;;26.13;64.97;100351.50;7406743;19;1323;-60
2022/07/31 12:04:03;;;;;;;;;;;;;;;25.94;65.56;100352.13;7409490;19;1756;-60
2022/07/31 12:06:32;;;;;;;;;;;;;;;26.10;64.98;100335.66;7407765;19;1856;-60
2022/07/31 12:09:00;;;;;;;;;;;;;;;26.14;65.19;100336.94;7408385;19;1368;-56
2022/07/31 12:11:29;;;;;;;;;;;;;;;26.21;65.69;100336.16;7410516;19;1510;-60
2022/07/31 12:13:58;;;;;;;;;;;;;;;26.35;65.17;100329.81;7409344;19;1626;-55
2022/07/31 12:16:26;;;;;;;;;;;;;;;26.45;63.41;100337.63;7408075;19;1788;-61
2022/07/31 12:18:57;;;;;;;;;;;;;;;26.50;64.76;100325.16;7407500;19;1663;-56
2022/07/31 12:21:35;;;;;;;;;;;;;;;26.58;64.28;100321.47;7408847;19;1614;-60
2022/07/31 12:24:03;;;;;;;;;;;;;;;26.59;64.23;100305.03;7407387;19;1767;-61
2022/07/31 12:26:33;;;;;;;;;;;;;;;26.59;64.89;100310.44;7408081;19;1869;-60
2022/07/31 12:29:02;;;;;;;;;;;;;;;26.63;64.48;100304.63;7409889;19;1039;-61
2022/07/31 12:31:32;;;;;;;;;;;;;;;26.57;63.99;100292.66;7408209;19;1339;-56
2022/07/31 12:34:00;;;;;;;;;;;;;;;26.58;63.13;100322.34;7408199;19;1372;-56
2022/07/31 12:36:28;;;;;;;;;;;;;;;26.65;62.49;100310.69;7407880;19;1415;-56
2022/07/31 12:39:03;;;;;;;;;;;;;;;26.62;61.67;100302.94;7407424;19;1352;-56
2022/07/31 12:41:32;;;;;;;;;;;;;;;26.58;60.42;100299.78;7408627;19;1387;-56
2022/07/31 12:44:09;;;;;;;;;;;;;;;26.58;59.87;100311.50;7408886;19;1652;-55
2022/07/31 12:46:38;;;;;;;;;;;;;;;26.58;60.23;100299.78;7407407;19;1837;-61
2022/07/31 12:49:07;;;;;;;;;;;;;;;26.59;59.69;100298.75;7407700;19;1565;-60
2022/07/31 12:51:36;;;;;;;;;;;;;;;26.63;59.97;100310.88;7408317;19;1411;-56
2022/07/31 12:54:07;;;;;;;;;;;;;;;26.62;59.09;100290.25;7407000;19;1858;-56
2022/07/31 12:56:36;;;;;;;;;;;;;;;26.61;58.47;100279.59;7406741;19;1556;-60
2022/07/31 12:59:04;;;;;;;;;;;;;;;26.65;57.52;100289.00;7403633;19;1445;-60
2022/07/31 13:01:32;;;;;;;;;;;;;;;26.62;56.49;100278.53;7405863;19;1981;-60
2022/07/31 13:04:02;;;;;;;;;;;;;;;26.66;57.20;100287.94;7407525;19;1355;-61
2022/07/31 13:06:31;;;;;;;;;;;;;;;26.62;56.83;100283.97;7406173;19;1853;-56